createdAt,value
2022-11-16T00:00:46.915Z,2.69
2022-11-16T00:01:43.456Z,2.67
2022-11-16T00:02:40.002Z,2.52
2022-11-16T00:03:36.433Z,2.97
2022-11-16T00:04:32.992Z,2.96
2022-11-16T00:05:29.597Z,2.84
2022-11-16T00:06:26.547Z,2.69
2022-11-16T00:07:23.076Z,2.82
2022-11-16T00:08:19.557Z,2.71
2022-11-16T00:09:27.145Z,2.73
2022-11-16T00:10:23.765Z,2.67
2022-11-16T00:11:20.229Z,2.87
2022-11-16T00:12:16.701Z,2.94
2022-11-16T00:13:13.120Z,3.00
2022-11-16T00:14:09.675Z,3.09
2022-11-16T00:15:07.806Z,2.81
2022-11-16T00:16:04.792Z,2.63
2022-11-16T00:17:01.511Z,2.44
2022-11-16T00:17:57.994Z,2.59
2022-11-16T00:18:58.763Z,2.54
2022-11-16T00:19:55.183Z,2.63
2022-11-16T00:20:51.849Z,2.99
2022-11-16T00:21:48.308Z,2.89
2022-11-16T00:22:44.884Z,2.58
2022-11-16T00:23:41.327Z,2.56
2022-11-16T00:24:37.844Z,2.59
2022-11-16T00:25:34.751Z,2.50
2022-11-16T00:26:31.592Z,2.52
2022-11-16T00:27:28.081Z,2.47
2022-11-16T00:28:24.565Z,2.45
2022-11-16T00:29:22.389Z,2.44
2022-11-16T00:30:18.896Z,2.40
2022-11-16T00:31:15.481Z,2.49
2022-11-16T00:32:12.495Z,2.50
2022-11-16T00:33:13.440Z,2.54
2022-11-16T00:34:09.944Z,2.42
2022-11-16T00:35:06.689Z,2.42
2022-11-16T00:36:04.411Z,2.45
2022-11-16T00:37:00.928Z,2.47
2022-11-16T00:37:57.648Z,2.40
2022-11-16T00:38:54.201Z,2.56
2022-11-16T00:39:50.644Z,2.73
2022-11-16T00:40:47.110Z,2.89
2022-11-16T00:41:44.110Z,2.71
2022-11-16T00:42:40.558Z,2.54
2022-11-16T00:43:37.598Z,2.47
2022-11-16T00:44:34.102Z,2.50
2022-11-16T00:45:30.624Z,2.56
2022-11-16T00:46:27.092Z,2.54
2022-11-16T00:47:23.951Z,2.46
2022-11-16T00:48:21.047Z,2.48
2022-11-16T00:49:17.524Z,2.44
2022-11-16T00:50:14.036Z,2.39
2022-11-16T00:51:10.553Z,2.57
2022-11-16T00:52:07.031Z,2.80
2022-11-16T00:53:04.045Z,2.34
2022-11-16T00:54:01.010Z,2.63
2022-11-16T00:54:57.458Z,2.44
2022-11-16T00:55:53.904Z,2.33
2022-11-16T00:56:50.366Z,2.31
2022-11-16T00:57:46.858Z,2.41
2022-11-16T00:58:43.495Z,2.44
2022-11-16T00:59:39.949Z,2.63
2022-11-16T01:00:36.405Z,2.68
2022-11-16T01:01:33.164Z,2.56
2022-11-16T01:02:29.654Z,2.53
2022-11-16T01:03:26.088Z,2.50
2022-11-16T01:04:22.537Z,2.55
2022-11-16T01:05:19.006Z,2.69
2022-11-16T01:06:16.029Z,2.89
2022-11-16T01:07:12.584Z,2.72
2022-11-16T01:08:09.242Z,2.47
2022-11-16T01:09:05.750Z,2.49
2022-11-16T01:10:04.249Z,2.55
2022-11-16T01:11:20.645Z,2.43
2022-11-16T01:12:17.263Z,2.26
2022-11-16T01:13:13.730Z,2.27
2022-11-16T01:14:10.886Z,2.18
2022-11-16T01:15:09.145Z,2.12
2022-11-16T01:16:05.644Z,2.08
2022-11-16T01:17:02.144Z,1.52
2022-11-16T01:17:58.605Z,1.93
2022-11-16T01:18:55.270Z,1.83
2022-11-16T01:19:51.805Z,1.91
2022-11-16T01:20:48.331Z,1.94
2022-11-16T01:21:44.801Z,2.02
2022-11-16T01:22:41.348Z,2.01
2022-11-16T01:23:37.804Z,1.95
2022-11-16T01:24:34.382Z,1.82
2022-11-16T01:25:30.846Z,1.83
2022-11-16T01:26:27.408Z,1.91
2022-11-16T01:27:23.901Z,1.92
2022-11-16T01:28:20.377Z,1.88
2022-11-16T01:29:17.072Z,1.77
2022-11-16T01:30:14.463Z,1.72
2022-11-16T01:31:11.242Z,1.65
2022-11-16T01:32:07.747Z,1.50
2022-11-16T01:33:04.232Z,1.45
2022-11-16T01:34:00.730Z,1.45
2022-11-16T01:34:57.234Z,1.35
2022-11-16T01:35:53.759Z,1.35
2022-11-16T01:36:50.352Z,1.41
2022-11-16T01:37:46.889Z,1.48
2022-11-16T01:38:44.298Z,1.50
2022-11-16T01:39:40.724Z,1.39
2022-11-16T01:40:38.007Z,1.36
2022-11-16T01:41:34.678Z,1.36
2022-11-16T01:42:31.999Z,1.37
2022-11-16T01:43:28.551Z,1.33
2022-11-16T01:44:33.943Z,1.38
2022-11-16T01:45:41.296Z,1.81
2022-11-16T01:46:37.771Z,1.85
2022-11-16T01:47:34.331Z,1.81
2022-11-16T01:48:30.958Z,1.81
2022-11-16T01:49:29.121Z,1.51
2022-11-16T01:50:25.768Z,1.55
2022-11-16T01:51:22.597Z,1.60
2022-11-16T01:52:20.494Z,1.58
2022-11-16T01:53:17.053Z,1.65
2022-11-16T01:54:13.899Z,1.50
2022-11-16T01:55:11.265Z,1.36
2022-11-16T01:56:08.509Z,1.55
2022-11-16T01:57:07.905Z,1.74
2022-11-16T01:58:04.573Z,1.87
2022-11-16T01:59:01.086Z,1.90
2022-11-16T01:59:59.091Z,1.72
2022-11-16T02:00:55.587Z,1.82
2022-11-16T02:01:52.332Z,1.77
2022-11-16T02:02:48.925Z,1.70
2022-11-16T02:03:45.431Z,1.79
2022-11-16T02:04:42.135Z,2.04
2022-11-16T02:06:08.036Z,2.06
2022-11-16T02:07:07.595Z,2.22
2022-11-16T02:08:41.589Z,2.20
2022-11-16T02:09:57.268Z,2.24
2022-11-16T02:10:59.700Z,2.30
2022-11-16T02:11:58.950Z,2.28
2022-11-16T02:13:24.913Z,2.03
2022-11-16T02:14:21.374Z,2.03
2022-11-16T02:15:24.087Z,1.84
2022-11-16T02:16:30.212Z,1.90
2022-11-16T02:17:45.543Z,1.82
2022-11-16T02:19:01.106Z,1.62
2022-11-16T02:20:24.544Z,1.53
2022-11-16T02:21:24.050Z,1.62
2022-11-16T02:22:53.065Z,1.50
2022-11-16T02:24:08.070Z,1.59
2022-11-16T02:25:16.817Z,1.58
2022-11-16T02:26:13.263Z,1.58
2022-11-16T02:27:31.868Z,1.61
2022-11-16T02:28:28.455Z,1.57
2022-11-16T02:29:41.271Z,1.57
2022-11-16T02:30:40.489Z,1.48
2022-11-16T02:31:40.863Z,1.40
2022-11-16T02:32:39.823Z,1.45
2022-11-16T02:33:38.243Z,1.53
2022-11-16T02:34:38.555Z,1.52
2022-11-16T02:35:39.056Z,1.57
2022-11-16T02:36:37.836Z,1.47
2022-11-16T02:37:36.502Z,1.48
2022-11-16T02:38:36.241Z,1.50
2022-11-16T02:39:34.552Z,1.31
2022-11-16T02:40:31.838Z,1.36
2022-11-16T02:41:31.957Z,1.65
2022-11-16T02:42:34.488Z,1.51
2022-11-16T02:43:34.237Z,1.48
2022-11-16T02:44:35.737Z,1.50
2022-11-16T02:45:33.787Z,1.43
2022-11-16T02:46:33.184Z,1.41
2022-11-16T02:47:31.764Z,1.49
2022-11-16T02:48:35.233Z,1.62
2022-11-16T02:49:35.028Z,1.39
2022-11-16T02:50:32.829Z,1.40
2022-11-16T02:51:29.550Z,1.43
2022-11-16T02:52:28.499Z,1.38
2022-11-16T02:53:25.317Z,1.49
2022-11-16T02:54:24.592Z,1.50
2022-11-16T02:55:21.639Z,1.57
2022-11-16T02:56:18.425Z,1.51
2022-11-16T02:57:24.886Z,1.62
2022-11-16T02:58:23.114Z,1.62
2022-11-16T02:59:19.959Z,1.57
2022-11-16T03:00:33.853Z,1.65
2022-11-16T03:01:36.466Z,1.70
2022-11-16T03:02:33.027Z,1.71
2022-11-16T03:03:29.711Z,1.86
2022-11-16T03:04:46.850Z,1.89
2022-11-16T03:05:46.067Z,1.80
2022-11-16T03:06:43.849Z,1.69
2022-11-16T03:07:52.364Z,1.76
2022-11-16T03:08:56.869Z,1.68
2022-11-16T03:09:55.078Z,1.59
2022-11-16T03:11:15.327Z,1.64
2022-11-16T03:12:14.327Z,1.65
2022-11-16T03:13:13.459Z,1.58
2022-11-16T03:14:13.740Z,1.69
2022-11-16T03:15:11.807Z,1.82
2022-11-16T03:16:11.617Z,1.87
2022-11-16T03:17:11.395Z,1.92
2022-11-16T03:18:08.756Z,1.95
2022-11-16T03:19:10.646Z,1.91
2022-11-16T03:20:09.699Z,1.89
2022-11-16T03:21:10.453Z,1.99
2022-11-16T03:22:16.024Z,1.83
2022-11-16T03:23:13.066Z,1.80
2022-11-16T03:24:09.836Z,1.75
2022-11-16T03:25:06.786Z,1.79
2022-11-16T03:26:06.130Z,1.93
2022-11-16T03:27:08.342Z,1.94
2022-11-16T03:28:10.872Z,1.98
2022-11-16T03:29:13.743Z,2.04
2022-11-16T03:30:13.032Z,2.10
2022-11-16T03:31:13.154Z,1.99
2022-11-16T03:32:20.702Z,1.77
2022-11-16T03:33:17.189Z,1.74
2022-11-16T03:34:16.291Z,1.59
2022-11-16T03:35:17.843Z,1.44
2022-11-16T03:36:21.944Z,1.39
2022-11-16T03:37:19.055Z,1.34
2022-11-16T03:38:16.078Z,1.31
2022-11-16T03:39:16.809Z,1.23
2022-11-16T03:40:14.086Z,1.07
2022-11-16T03:41:11.330Z,1.08
2022-11-16T03:42:11.136Z,1.06
2022-11-16T03:43:08.481Z,1.08
2022-11-16T03:44:05.791Z,1.15
2022-11-16T03:45:03.070Z,1.22
2022-11-16T03:45:59.726Z,1.25
2022-11-16T03:46:56.266Z,1.33
2022-11-16T03:47:52.722Z,1.37
2022-11-16T03:48:55.651Z,1.33
2022-11-16T03:49:52.100Z,1.28
2022-11-16T03:50:48.680Z,1.36
2022-11-16T03:51:45.167Z,1.39
2022-11-16T03:52:41.679Z,1.50
2022-11-16T03:53:38.138Z,1.40
2022-11-16T03:54:34.613Z,1.24
2022-11-16T03:55:31.122Z,1.22
2022-11-16T03:56:27.608Z,1.22
2022-11-16T03:57:24.245Z,1.27
2022-11-16T03:58:20.672Z,1.22
2022-11-16T03:59:17.115Z,1.16
2022-11-16T04:00:13.688Z,1.21
2022-11-16T04:01:10.219Z,1.21
2022-11-16T04:02:06.731Z,1.16
2022-11-16T04:03:03.188Z,1.10
2022-11-16T04:03:59.629Z,1.27
2022-11-16T04:05:14.978Z,1.27
2022-11-16T04:06:30.519Z,1.14
2022-11-16T04:07:45.513Z,1.05
2022-11-16T04:09:00.540Z,1.16
2022-11-16T04:10:15.824Z,1.24
2022-11-16T04:11:35.222Z,1.01
2022-11-16T04:12:50.684Z,1.06
2022-11-16T04:14:09.132Z,1.21
2022-11-16T04:15:27.861Z,1.24
2022-11-16T04:16:43.170Z,1.12
2022-11-16T04:17:58.486Z,1.03
2022-11-16T04:19:13.587Z,1.09
2022-11-16T04:20:32.459Z,1.34
2022-11-16T04:21:48.815Z,1.50
2022-11-16T04:23:12.451Z,1.69
2022-11-16T04:24:17.185Z,1.34
2022-11-16T04:25:20.445Z,1.21
2022-11-16T04:26:16.927Z,1.03
2022-11-16T04:27:33.485Z,0.97
2022-11-16T04:28:32.096Z,0.94
2022-11-16T04:29:29.383Z,1.09
2022-11-16T04:30:26.222Z,1.12
2022-11-16T04:31:41.445Z,1.07
2022-11-16T04:32:56.635Z,1.14
2022-11-16T04:34:11.884Z,1.46
2022-11-16T04:35:47.145Z,1.50
2022-11-16T04:37:02.338Z,1.43
2022-11-16T04:37:59.534Z,1.28
2022-11-16T04:38:56.056Z,1.30
2022-11-16T04:39:52.467Z,1.32
2022-11-16T04:40:49.027Z,1.22
2022-11-16T04:42:04.201Z,1.19
2022-11-16T04:43:03.324Z,1.33
2022-11-16T04:43:59.834Z,1.36
2022-11-16T04:45:14.946Z,1.33
2022-11-16T04:46:30.095Z,1.49
2022-11-16T04:47:26.566Z,1.52
2022-11-16T04:48:23.115Z,1.59
2022-11-16T04:49:19.544Z,1.39
2022-11-16T04:50:16.269Z,1.28
2022-11-16T04:51:12.714Z,1.35
2022-11-16T04:52:09.169Z,1.22
2022-11-16T04:53:05.848Z,0.96
2022-11-16T04:54:02.364Z,1.30
2022-11-16T04:54:58.820Z,1.39
2022-11-16T04:56:00.491Z,1.48
2022-11-16T04:56:57.384Z,1.45
2022-11-16T04:57:54.267Z,1.32
2022-11-16T04:58:50.715Z,1.30
2022-11-16T04:59:47.185Z,1.54
2022-11-16T05:00:43.648Z,1.60
2022-11-16T05:01:58.636Z,1.60
2022-11-16T05:03:00.767Z,1.47
2022-11-16T05:03:57.860Z,1.43
2022-11-16T05:04:54.370Z,1.49
2022-11-16T05:05:50.868Z,1.61
2022-11-16T05:06:47.782Z,1.71
2022-11-16T05:07:44.413Z,1.95
2022-11-16T05:08:40.865Z,2.10
2022-11-16T05:09:43.087Z,2.38
2022-11-16T05:10:39.729Z,2.74
2022-11-16T05:11:36.176Z,2.59
2022-11-16T05:12:32.795Z,2.29
2022-11-16T05:13:29.894Z,2.07
2022-11-16T05:14:26.362Z,2.13
2022-11-16T05:15:22.913Z,2.07
2022-11-16T05:16:19.393Z,2.10
2022-11-16T05:17:16.291Z,2.14
2022-11-16T05:18:12.723Z,1.96
2022-11-16T05:19:27.602Z,1.99
2022-11-16T05:20:42.816Z,2.33
2022-11-16T05:21:39.331Z,1.99
2022-11-16T05:22:36.091Z,1.96
2022-11-16T05:23:51.410Z,2.00
2022-11-16T05:24:47.891Z,2.08
2022-11-16T05:25:44.370Z,2.19
2022-11-16T05:26:40.791Z,2.23
2022-11-16T05:27:37.567Z,2.24
2022-11-16T05:28:34.362Z,2.19
2022-11-16T05:29:31.555Z,2.15
2022-11-16T05:30:29.706Z,2.15
2022-11-16T05:31:26.147Z,2.10
2022-11-16T05:32:23.176Z,2.24
2022-11-16T05:33:19.649Z,2.29
2022-11-16T05:34:16.176Z,2.15
2022-11-16T05:35:12.720Z,2.07
2022-11-16T05:36:09.455Z,2.15
2022-11-16T05:37:06.149Z,2.47
2022-11-16T05:38:02.642Z,2.26
2022-11-16T05:38:59.090Z,2.18
2022-11-16T05:39:56.910Z,2.13
2022-11-16T05:40:53.452Z,2.24
2022-11-16T05:41:50.458Z,2.25
2022-11-16T05:42:46.895Z,2.34
2022-11-16T05:43:43.377Z,2.31
2022-11-16T05:44:39.944Z,2.08
2022-11-16T05:45:36.503Z,2.07
2022-11-16T05:46:33.127Z,2.02
2022-11-16T05:47:29.684Z,2.14
2022-11-16T05:48:26.116Z,2.20
2022-11-16T05:49:23.041Z,2.32
2022-11-16T05:50:19.508Z,2.41
2022-11-16T05:51:15.980Z,2.41
2022-11-16T05:52:12.437Z,2.42
2022-11-16T05:53:08.943Z,2.45
2022-11-16T05:54:05.896Z,2.55
2022-11-16T05:55:02.383Z,2.67
2022-11-16T05:55:58.978Z,2.67
2022-11-16T05:56:55.610Z,2.73
2022-11-16T05:57:52.066Z,2.59
2022-11-16T05:58:48.583Z,2.31
2022-11-16T05:59:45.134Z,2.54
2022-11-16T06:00:41.604Z,2.64
2022-11-16T06:01:38.575Z,2.73
2022-11-16T06:02:35.020Z,2.66
2022-11-16T06:03:31.584Z,2.70
2022-11-16T06:04:28.128Z,2.84
2022-11-16T06:05:24.634Z,2.82
2022-11-16T06:06:21.208Z,2.87
2022-11-16T06:07:17.746Z,2.84
2022-11-16T06:08:14.274Z,2.77
2022-11-16T06:09:11.863Z,3.12
2022-11-16T06:10:08.478Z,3.32
2022-11-16T06:11:05.884Z,3.11
2022-11-16T06:12:02.556Z,3.08
2022-11-16T06:12:58.978Z,3.01
2022-11-16T06:13:55.498Z,2.84
2022-11-16T06:14:51.961Z,2.96
2022-11-16T06:15:54.153Z,2.90
2022-11-16T06:16:50.596Z,2.93
2022-11-16T06:17:47.247Z,2.86
2022-11-16T06:18:45.109Z,2.75
2022-11-16T06:19:41.900Z,2.61
2022-11-16T06:20:39.396Z,2.63
2022-11-16T06:21:35.835Z,2.79
2022-11-16T06:22:32.374Z,2.89
2022-11-16T06:23:28.833Z,3.02
2022-11-16T06:24:25.702Z,2.98
2022-11-16T06:25:22.140Z,2.97
2022-11-16T06:26:18.623Z,2.96
2022-11-16T06:27:16.053Z,2.97
2022-11-16T06:28:12.884Z,2.97
2022-11-16T06:29:09.378Z,2.91
2022-11-16T06:30:06.680Z,3.07
2022-11-16T06:31:03.401Z,2.95
2022-11-16T06:32:00.025Z,2.98
2022-11-16T06:32:56.598Z,3.02
2022-11-16T06:33:53.074Z,3.06
2022-11-16T06:34:49.527Z,3.06
2022-11-16T06:35:46.080Z,3.23
2022-11-16T06:36:42.523Z,3.17
2022-11-16T06:37:39.030Z,3.17
2022-11-16T06:38:35.689Z,3.19
2022-11-16T06:39:32.325Z,3.50
2022-11-16T06:40:33.217Z,3.34
2022-11-16T06:41:29.762Z,3.44
2022-11-16T06:42:26.192Z,3.71
2022-11-16T06:43:23.023Z,3.44
2022-11-16T06:44:19.465Z,3.45
2022-11-16T06:45:16.126Z,3.47
2022-11-16T06:46:12.695Z,3.54
2022-11-16T06:47:09.226Z,3.18
2022-11-16T06:48:05.686Z,3.11
2022-11-16T06:49:02.151Z,3.18
2022-11-16T06:49:58.624Z,3.20
2022-11-16T06:50:55.112Z,3.11
2022-11-16T06:51:51.713Z,3.37
2022-11-16T06:52:49.158Z,3.36
2022-11-16T06:54:59.625Z,3.41
2022-11-16T06:56:00.270Z,3.39
2022-11-16T06:56:56.756Z,3.20
2022-11-16T06:57:53.291Z,3.31
2022-11-16T06:58:53.322Z,3.13
2022-11-16T06:59:50.200Z,2.97
2022-11-16T07:00:46.691Z,2.91
2022-11-16T07:01:43.265Z,3.01
2022-11-16T07:02:40.112Z,3.31
2022-11-16T07:03:36.658Z,3.80
2022-11-16T07:04:33.158Z,3.94
2022-11-16T07:05:30.016Z,3.87
2022-11-16T07:06:26.427Z,3.99
2022-11-16T07:07:22.993Z,4.05
2022-11-16T07:08:19.613Z,3.91
2022-11-16T07:09:16.096Z,3.82
2022-11-16T07:10:13.070Z,3.68
2022-11-16T07:11:10.318Z,3.88
2022-11-16T07:12:06.922Z,3.99
2022-11-16T07:13:03.749Z,4.05
2022-11-16T07:14:00.466Z,4.03
2022-11-16T07:14:56.989Z,4.12
2022-11-16T07:15:53.413Z,4.27
2022-11-16T07:16:53.667Z,4.32
2022-11-16T07:17:52.868Z,4.31
2022-11-16T07:18:49.334Z,4.33
2022-11-16T07:19:45.895Z,4.35
2022-11-16T07:20:42.345Z,4.32
2022-11-16T07:21:38.828Z,4.33
2022-11-16T07:22:35.279Z,4.38
2022-11-16T07:23:31.782Z,4.48
2022-11-16T07:24:28.231Z,4.57
2022-11-16T07:25:24.720Z,4.46
2022-11-16T07:26:21.230Z,4.83
2022-11-16T07:27:17.727Z,4.88
2022-11-16T07:28:14.416Z,4.76
2022-11-16T07:29:10.859Z,4.81
2022-11-16T07:30:07.621Z,4.75
2022-11-16T07:31:05.069Z,4.67
2022-11-16T07:32:01.604Z,4.91
2022-11-16T07:32:59.156Z,4.75
2022-11-16T07:33:55.609Z,4.87
2022-11-16T07:34:52.060Z,4.92
2022-11-16T07:35:48.559Z,4.95
2022-11-16T07:36:45.093Z,5.04
2022-11-16T07:37:41.586Z,4.87
2022-11-16T07:38:38.325Z,4.80
2022-11-16T07:39:34.896Z,4.83
2022-11-16T07:40:31.383Z,4.70
2022-11-16T07:41:27.906Z,4.70
2022-11-16T07:42:24.377Z,5.04
2022-11-16T07:43:20.848Z,5.32
2022-11-16T07:44:17.405Z,5.29
2022-11-16T07:45:14.002Z,5.13
2022-11-16T07:47:28.182Z,5.11
2022-11-16T07:48:24.928Z,5.12
2022-11-16T07:49:21.440Z,5.27
2022-11-16T07:50:17.953Z,4.93
2022-11-16T07:51:15.449Z,4.82
2022-11-16T07:52:11.936Z,4.57
2022-11-16T07:53:08.373Z,4.86
2022-11-16T07:54:06.503Z,4.86
2022-11-16T07:55:03.041Z,4.85
2022-11-16T07:55:59.835Z,4.70
2022-11-16T07:56:56.284Z,4.79
2022-11-16T07:57:53.628Z,4.87
2022-11-16T07:58:50.576Z,4.88
2022-11-16T07:59:47.224Z,4.98
2022-11-16T08:00:43.695Z,5.18
2022-11-16T08:01:40.271Z,5.08
2022-11-16T08:02:36.833Z,5.07
2022-11-16T08:03:33.871Z,5.11
2022-11-16T08:04:30.341Z,5.38
2022-11-16T08:05:26.804Z,5.47
2022-11-16T08:06:24.898Z,5.52
2022-11-16T08:07:21.516Z,5.67
2022-11-16T08:08:17.972Z,5.65
2022-11-16T08:09:14.517Z,5.75
2022-11-16T08:10:11.044Z,5.81
2022-11-16T08:11:09.177Z,5.87
2022-11-16T08:12:05.715Z,5.91
2022-11-16T08:13:02.508Z,5.82
2022-11-16T08:13:59.003Z,6.09
2022-11-16T08:14:55.469Z,5.87
2022-11-16T08:15:52.096Z,6.02
2022-11-16T08:16:48.678Z,6.10
2022-11-16T08:17:45.142Z,6.13
2022-11-16T08:18:42.202Z,6.24
2022-11-16T08:19:40.196Z,6.27
2022-11-16T08:20:36.803Z,6.06
2022-11-16T08:21:33.292Z,6.30
2022-11-16T08:22:29.784Z,6.24
2022-11-16T08:23:26.313Z,6.51
2022-11-16T08:24:22.785Z,6.40
2022-11-16T08:25:19.207Z,6.62
2022-11-16T08:26:16.864Z,6.72
2022-11-16T08:27:15.410Z,6.74
2022-11-16T08:28:11.999Z,6.85
2022-11-16T08:29:08.542Z,6.93
2022-11-16T08:30:09.810Z,7.15
2022-11-16T08:31:16.491Z,7.21
2022-11-16T08:32:13.067Z,6.87
2022-11-16T08:33:10.296Z,6.95
2022-11-16T08:34:06.723Z,7.14
2022-11-16T08:35:03.262Z,7.08
2022-11-16T08:36:06.184Z,6.82
2022-11-16T08:37:06.559Z,6.69
2022-11-16T08:38:03.131Z,6.58
2022-11-16T08:38:59.651Z,6.90
2022-11-16T08:39:56.224Z,7.02
2022-11-16T08:40:55.879Z,6.86
2022-11-16T08:41:52.367Z,7.07
2022-11-16T08:42:48.849Z,7.06
2022-11-16T08:43:47.199Z,7.04
2022-11-16T08:44:43.683Z,7.11
2022-11-16T08:45:40.363Z,7.25
2022-11-16T08:46:36.804Z,7.10
2022-11-16T08:47:33.243Z,7.08
2022-11-16T08:48:29.861Z,7.20
2022-11-16T08:49:28.948Z,7.29
2022-11-16T08:50:25.631Z,7.40
2022-11-16T08:52:36.319Z,7.34
2022-11-16T08:53:32.812Z,7.52
2022-11-16T08:54:29.613Z,7.33
2022-11-16T08:55:26.095Z,7.76
2022-11-16T08:56:22.703Z,8.12
2022-11-16T08:57:19.126Z,8.29
2022-11-16T08:58:15.606Z,7.74
2022-11-16T08:59:12.598Z,7.58
2022-11-16T09:00:09.598Z,7.70
2022-11-16T09:01:25.071Z,7.87
2022-11-16T09:02:25.527Z,8.23
2022-11-16T09:03:22.197Z,8.15
2022-11-16T09:04:18.827Z,8.05
2022-11-16T09:05:16.173Z,8.28
2022-11-16T09:06:13.134Z,8.02
2022-11-16T09:07:10.199Z,7.92
2022-11-16T09:08:06.779Z,7.91
2022-11-16T09:09:03.374Z,8.28
2022-11-16T09:10:00.036Z,7.82
2022-11-16T09:10:56.465Z,8.09
2022-11-16T09:11:54.828Z,7.57
2022-11-16T09:12:51.418Z,8.01
2022-11-16T09:13:48.754Z,7.67
2022-11-16T09:14:45.220Z,7.93
2022-11-16T09:15:41.663Z,8.09
2022-11-16T09:16:38.132Z,7.92
2022-11-16T09:17:34.638Z,8.17
2022-11-16T09:18:31.842Z,8.09
2022-11-16T09:19:28.633Z,7.64
2022-11-16T09:20:26.415Z,7.31
2022-11-16T09:21:24.718Z,7.44
2022-11-16T09:22:21.199Z,7.59
2022-11-16T09:23:22.283Z,7.84
2022-11-16T09:24:21.509Z,7.80
2022-11-16T09:25:19.143Z,7.83
2022-11-16T09:26:16.591Z,8.08
2022-11-16T09:27:13.120Z,8.22
2022-11-16T09:28:09.671Z,8.34
2022-11-16T09:29:06.170Z,8.67
2022-11-16T09:30:02.649Z,9.19
2022-11-16T09:31:02.994Z,9.15
2022-11-16T09:31:59.457Z,8.78
2022-11-16T09:32:58.028Z,8.54
2022-11-16T09:33:58.180Z,8.67
2022-11-16T09:34:54.653Z,8.96
2022-11-16T09:35:51.085Z,9.11
2022-11-16T09:36:47.595Z,9.03
2022-11-16T09:37:44.325Z,8.85
2022-11-16T09:39:13.311Z,9.10
2022-11-16T09:41:54.020Z,9.14
2022-11-16T09:42:50.506Z,8.70
2022-11-16T09:43:51.116Z,8.35
2022-11-16T09:44:56.593Z,8.07
2022-11-16T09:45:58.676Z,7.87
2022-11-16T09:46:59.518Z,7.66
2022-11-16T09:48:02.372Z,7.55
2022-11-16T09:49:00.615Z,7.67
2022-11-16T09:50:03.642Z,7.42
2022-11-16T09:51:02.935Z,7.14
2022-11-16T09:52:04.678Z,7.22
2022-11-16T09:53:22.911Z,7.22
2022-11-16T09:54:22.359Z,7.48
2022-11-16T09:55:24.925Z,7.94
2022-11-16T09:56:22.793Z,7.96
2022-11-16T09:57:22.185Z,7.88
2022-11-16T09:58:22.220Z,7.77
2022-11-16T09:59:23.368Z,7.70
2022-11-16T10:00:22.984Z,7.70
2022-11-16T10:01:26.467Z,7.80
2022-11-16T10:02:43.258Z,7.98
2022-11-16T10:03:42.745Z,8.21
2022-11-16T10:04:43.739Z,8.12
2022-11-16T10:05:55.578Z,8.12
2022-11-16T10:06:57.761Z,8.15
2022-11-16T10:08:04.559Z,8.27
2022-11-16T10:09:00.987Z,8.31
2022-11-16T10:09:57.785Z,8.50
2022-11-16T10:10:54.217Z,8.93
2022-11-16T10:11:50.672Z,9.08
2022-11-16T10:13:03.531Z,9.03
2022-11-16T10:14:06.654Z,8.61
2022-11-16T10:15:23.562Z,8.80
2022-11-16T10:16:26.140Z,9.29
2022-11-16T10:17:37.353Z,9.08
2022-11-16T10:18:51.412Z,9.04
2022-11-16T10:19:55.984Z,9.17
2022-11-16T10:21:10.954Z,9.32
2022-11-16T10:22:22.624Z,9.62
2022-11-16T10:23:37.329Z,9.74
2022-11-16T10:24:34.271Z,9.87
2022-11-16T10:25:54.388Z,10.18
2022-11-16T10:26:55.260Z,10.26
2022-11-16T10:28:00.753Z,10.55
2022-11-16T10:29:15.949Z,10.80
2022-11-16T10:30:16.939Z,11.07
2022-11-16T10:31:30.984Z,10.96
2022-11-16T10:32:36.863Z,10.89
2022-11-16T10:33:37.055Z,10.80
2022-11-16T10:34:45.641Z,10.80
2022-11-16T10:35:44.395Z,10.83
2022-11-16T10:36:40.882Z,11.16
2022-11-16T10:37:39.420Z,11.13
2022-11-16T10:38:36.538Z,11.31
2022-11-16T10:39:34.115Z,11.45
2022-11-16T10:40:35.987Z,11.46
2022-11-16T10:41:43.829Z,11.79
2022-11-16T10:42:40.335Z,11.97
2022-11-16T10:43:37.298Z,12.17
2022-11-16T10:45:06.323Z,11.79
2022-11-16T10:46:02.762Z,11.86
2022-11-16T10:47:19.480Z,12.08
2022-11-16T10:48:23.041Z,11.71
2022-11-16T10:49:24.054Z,11.95
2022-11-16T10:50:23.351Z,12.29
2022-11-16T10:51:19.813Z,12.16
2022-11-16T10:52:16.339Z,12.23
2022-11-16T10:53:14.646Z,12.57
2022-11-16T10:54:15.112Z,12.60
2022-11-16T10:55:15.191Z,11.69
2022-11-16T10:56:30.207Z,12.10
2022-11-16T10:57:46.594Z,12.59
2022-11-16T10:58:54.361Z,13.02
2022-11-16T10:59:55.315Z,12.90
2022-11-16T11:00:52.038Z,13.19
2022-11-16T11:02:08.103Z,13.14
2022-11-16T11:03:04.615Z,13.64
2022-11-16T11:04:21.994Z,13.14
2022-11-16T11:05:20.161Z,13.59
2022-11-16T11:06:16.763Z,13.48
2022-11-16T11:07:29.469Z,13.69
2022-11-16T11:08:27.997Z,12.91
2022-11-16T11:09:26.710Z,13.36
2022-11-16T11:10:29.035Z,13.36
2022-11-16T11:11:44.295Z,13.01
2022-11-16T11:12:41.184Z,13.19
2022-11-16T11:13:38.058Z,13.19
2022-11-16T11:14:35.980Z,13.24
2022-11-16T11:15:32.707Z,12.90
2022-11-16T11:16:29.191Z,13.03
2022-11-16T11:17:25.988Z,12.90
2022-11-16T11:18:27.688Z,12.91
2022-11-16T11:19:24.128Z,12.69
2022-11-16T11:20:23.669Z,13.22
2022-11-16T11:21:21.922Z,12.84
2022-11-16T11:22:18.411Z,13.21
2022-11-16T11:23:16.848Z,13.23
2022-11-16T11:24:43.308Z,13.53
2022-11-16T11:25:42.404Z,13.61
2022-11-16T11:26:40.943Z,13.63
2022-11-16T11:27:37.565Z,13.35
2022-11-16T11:28:35.392Z,13.45
2022-11-16T11:29:32.919Z,13.38
2022-11-16T11:30:29.683Z,13.35
2022-11-16T11:31:34.382Z,13.30
2022-11-16T11:32:32.346Z,13.28
2022-11-16T11:33:31.316Z,13.37
2022-11-16T11:34:29.870Z,13.26
2022-11-16T11:35:31.108Z,13.81
2022-11-16T11:36:39.411Z,13.54
2022-11-16T11:37:37.161Z,13.30
2022-11-16T11:38:34.698Z,13.28
2022-11-16T11:40:56.071Z,12.81
2022-11-16T11:42:06.618Z,12.60
2022-11-16T11:43:04.441Z,12.58
2022-11-16T11:44:05.695Z,12.52
2022-11-16T11:45:15.172Z,12.63
2022-11-16T11:46:23.088Z,11.99
2022-11-16T11:47:55.479Z,11.88
2022-11-16T11:48:47.967Z,11.81
2022-11-16T11:49:52.284Z,12.06
2022-11-16T11:50:53.116Z,12.09
2022-11-16T11:51:50.091Z,12.09
2022-11-16T11:53:25.060Z,11.84
2022-11-16T11:54:28.746Z,11.85
2022-11-16T11:55:25.373Z,11.81
2022-11-16T11:56:22.541Z,11.67
2022-11-16T11:57:22.242Z,11.90
2022-11-16T11:58:19.364Z,11.91
2022-11-16T11:59:18.815Z,11.96
2022-11-16T12:00:15.655Z,11.93
2022-11-16T12:01:25.242Z,12.08
2022-11-16T12:02:22.231Z,12.05
2022-11-16T12:03:21.628Z,12.28
2022-11-16T12:04:36.904Z,12.36
2022-11-16T12:05:39.309Z,12.20
2022-11-16T12:06:43.591Z,12.31
2022-11-16T12:07:59.277Z,12.44
2022-11-16T12:08:55.731Z,12.63
2022-11-16T12:09:57.937Z,12.64
2022-11-16T12:11:00.190Z,12.54
2022-11-16T12:11:56.725Z,12.73
2022-11-16T12:13:12.159Z,12.46
2022-11-16T12:14:11.671Z,12.48
2022-11-16T12:15:23.478Z,12.39
2022-11-16T12:16:28.900Z,12.48
2022-11-16T12:17:28.345Z,12.37
2022-11-16T12:18:24.847Z,12.28
2022-11-16T12:19:40.198Z,12.27
2022-11-16T12:20:42.535Z,11.97
2022-11-16T12:22:01.981Z,11.69
2022-11-16T12:23:10.352Z,11.73
2022-11-16T12:24:19.688Z,11.57
2022-11-16T12:25:19.162Z,11.64
2022-11-16T12:26:29.903Z,11.54
2022-11-16T12:27:29.451Z,11.76
2022-11-16T12:28:35.132Z,11.59
2022-11-16T12:29:40.872Z,11.57
2022-11-16T12:30:45.247Z,11.75
2022-11-16T12:31:41.707Z,11.79
2022-11-16T12:32:49.563Z,11.65
2022-11-16T12:34:02.718Z,11.59
2022-11-16T12:35:05.458Z,11.48
2022-11-16T12:36:12.169Z,11.53
2022-11-16T12:37:08.608Z,11.64
2022-11-16T12:38:20.550Z,11.57
2022-11-16T12:39:24.420Z,11.67
2022-11-16T12:40:27.352Z,11.67
2022-11-16T12:41:26.848Z,11.74
2022-11-16T12:42:38.445Z,11.56
2022-11-16T12:43:50.090Z,11.72
2022-11-16T12:44:46.545Z,11.67
2022-11-16T12:45:49.263Z,11.72
2022-11-16T12:47:04.524Z,11.73
2022-11-16T12:48:19.639Z,11.62
2022-11-16T12:49:28.399Z,11.12
2022-11-16T12:50:34.153Z,11.42
2022-11-16T12:51:53.673Z,11.42
2022-11-16T12:53:05.189Z,11.30
2022-11-16T12:54:24.744Z,11.46
2022-11-16T12:55:26.315Z,11.53
2022-11-16T12:56:45.989Z,11.34
2022-11-16T12:57:45.287Z,11.24
2022-11-16T12:58:51.301Z,11.32
2022-11-16T12:59:50.630Z,11.32
2022-11-16T13:01:10.233Z,11.47
2022-11-16T13:02:09.828Z,11.29
2022-11-16T13:03:26.595Z,11.28
2022-11-16T13:04:26.657Z,11.17
2022-11-16T13:05:41.653Z,11.03
2022-11-16T13:06:56.138Z,11.00
2022-11-16T13:07:54.832Z,11.17
2022-11-16T13:09:07.493Z,10.15
2022-11-16T13:10:07.439Z,11.21
2022-11-16T13:11:14.390Z,11.20
2022-11-16T13:12:15.291Z,11.01
2022-11-16T13:13:37.792Z,10.86
2022-11-16T13:14:38.018Z,10.94
2022-11-16T13:15:37.206Z,10.96
2022-11-16T13:16:34.197Z,11.17
2022-11-16T13:17:37.145Z,11.03
2022-11-16T13:18:35.803Z,10.99
2022-11-16T13:19:33.793Z,11.00
2022-11-16T13:20:30.242Z,11.14
2022-11-16T13:21:43.517Z,11.09
2022-11-16T13:22:41.470Z,11.19
2022-11-16T13:23:48.040Z,11.40
2022-11-16T13:25:03.815Z,11.37